Tiempo atmosférico en la estación meteorológica de Espolla, Girona (94 m.)



Fecha
DESCASC
Temp. máxima en grados centígrados (hora)
DESCASC
Temp. mínima en grados centígrados (hora)
DESCASC
Temp. media en grados centígrados
DESCASC
Racha de viento máxima en m/sg (hora)
DESCASC
Velocidad máxima media en intervalos de 10 minutos(hora)
DESCASC
Precipitaciones diarias en mm
DESCASC
Precipitaciones de 00:00 a 06:00 en mm
DESCASC
Precipitaciones de 06:00 a 12:00 en mm
DESCASC
Precipitaciones de 12:00 a 18:00 en mm
DESCASC
Precipitaciones de 18:00 a 24:00 en mm
DESCASC
25-04-2019 21.1 (17:10) 10.9 (23:50) 16 13.61 (11:50) 7.78 (10:10) 0 0 0 0 0
24-04-2019 19.9 (15:20) 10.8 (04:00) 15.3 14.72 (11:50) 8.61 (12:00) 0 0 0 0 0
23-04-2019 18.7 (18:10) 12.5 (03:10) 15.6 7.22 (18:10) 4.72 (18:10) 49.2 20.4 28 0.8 0
22-04-2019 17.4 (13:30) 12.9 (00:00) 15.1 14.44 (07:20) 5.28 (13:40) 1.6 0 0 0 1.6
21-04-2019 16.7 (17:10) 11.3 (00:00) 14 12.78 (06:20) 6.94 (06:40) 0 0 0 0 0
20-04-2019 20.2 (12:20) 11 (00:00) 15.6 8.33 (14:40) 5 (14:40) 2.4 0 0 0 2.4
19-04-2019 21.3 (15:50) 10.9 (00:00) 16.1 10.28 (16:50) 6.11 (16:50) 0 0 0 0 0
18-04-2019 19.3 (14:00) 10.5 (00:00) 14.9 10 (14:10) 5.28 (14:20) 0 0 0 0 0
17-04-2019 17.4 (14:40) 7.7 (00:00) 12.5 10 (13:50) 6.39 (13:20) 0 0 0 0 0
16-04-2019 16.5 (11:50) 9.9 (00:00) 13.2 7.78 (16:20) 4.72 (16:20) 5.4 5.4 0 0 0
15-04-2019 16.8 (15:20) 8.3 (00:00) 12.5 8.06 (15:40) 5.28 (15:30) 0 0 0 0 0
14-04-2019 17.3 (19:40) 6.4 (00:00) 11.8 11.94 (20:20) 5.83 (20:20) 0 0 0 0 0
13-04-2019 22.4 (16:30) 10.6 (00:00) 16.5 15 (03:00) 6.94 (02:50) 0 0 0 0 0
12-04-2019 19.9 (15:40) 12.5 (00:00) 16.2 17.5 (18:20) 9.17 (00:30) 0 0 0 0 0
11-04-2019 17.1 (15:30) 12.6 (00:00) 14.9 18.33 (07:30) 11.11 (01:30) 0 0 0 0 0
10-04-2019 19.4 (16:20) 7.2 (00:00) 13.3 17.78 (23:30) 10 (23:50) 0 0 0 0 0
09-04-2019 16.3 (14:10) 7.8 (00:00) 12 9.44 (07:20) 4.72 (07:20) 5.2 0.2 4 0.8 0.2
08-04-2019 18.3 (15:30) 5.3 (00:00) 11.8 7.22 (12:30) 4.17 (12:50) 0 0 0 0 0
07-04-2019 17 (16:30) 5.2 (00:00) 11.1 14.17 (13:20) 8.33 (13:10) 0 0 0 0 0
06-04-2019 16.3 (14:20) 6.7 (00:00) 11.5 9.17 (15:40) 6.11 (15:50) 8.6 8.6 0 0 0
05-04-2019 18.1 (13:30) 2.6 (00:00) 10.4 13.06 (13:30) 7.78 (13:30) 0.6 0 0 0.2 0.4
04-04-2019 13.3 (15:30) 4.9 (00:00) 9.1 10.28 (01:20) 4.72 (01:30) 0 0 0 0 0
03-04-2019 12.5 (12:20) 6.5 (00:00) 9.5 10.83 (22:00) 5.28 (22:00) 8.6 0 0.4 0.8 7.4
02-04-2019 18 (13:00) 6.7 (00:00) 12.3 10.83 (13:30) 3.61 (13:40) 5 0 0 0.8 4.2
01-04-2019 19.7 (15:30) 7.2 (00:00) 13.5 8.33 (15:50) 4.72 (17:20) 0 0 0 0 0
31-03-2019 16.4 (14:20) 5.1 (00:00) 10.7 7.22 (15:20) 3.89 (14:20) 0 0 0 0 0
30-03-2019 16.6 (14:00) 4.6 (00:00) 10.6 10.83 (15:30) 6.94 (15:50) 0 0 0 0 0
29-03-2019 17.3 (13:00) 4.3 (00:00) 10.8 9.72 (14:10) 6.39 (14:30) 0 0 0 0 0
28-03-2019 18.3 (11:40) 5.3 (00:00) 11.8 8.89 (14:30) 5.56 (14:40) 0 0 0 0 0
27-03-2019 20.5 (14:20) 9.2 (00:00) 14.8 13.06 (15:30) 6.94 (15:00) 0 0 0 0 0

Gráficas

Temp. máximas Temp. mínimas Temp. medias Precipitaciones Rachas de viento máximas Velocidades máximas media en intervalos de 10 minutos

Datos horarios

Fecha y hora oficial Temperatura (ºC) Velocidad del viento (km/h) Dirección del viento Racha (km/h) Dirección de racha Precipitación (mm) Presión (hPa) Tendencia (hPa) Humedad (%)
2019-04-25 23:00:00 11.7 14 Nordeste 20 Nordeste 0 -- -- 69
2019-04-25 22:00:00 14.5 13 Nordeste 21 Este 0 -- -- 55
2019-04-25 21:00:00 15.8 12 Sudoeste 30 Sudoeste 0 -- -- 51
2019-04-25 20:00:00 17.8 12 Sudoeste 37 Oeste 0 -- -- 51
2019-04-25 19:00:00 19.3 20 Sudoeste 39 Sudoeste 0 -- -- 48
2019-04-25 18:00:00 20.3 25 Sudoeste 45 Sudoeste 0 -- -- 45
2019-04-25 17:00:00 20.8 23 Sudoeste 45 Sur 0 -- -- 42
2019-04-25 16:00:00 19.2 22 Sudoeste 37 Sudoeste 0 -- -- 47
2019-04-25 15:00:00 18.2 23 Sudoeste 41 Sudoeste 0 -- -- 51
2019-04-25 14:00:00 18.9 23 Sudoeste 38 Sur 0 -- -- 52
2019-04-25 13:00:00 19.3 26 Sudoeste 47 Sudoeste 0 -- -- 49
2019-04-25 12:00:00 18 23 Sudoeste 49 Sudoeste 0 -- -- 59
2019-04-25 11:00:00 16.6 24 Sur 48 Sudoeste 0 -- -- 73
2019-04-25 10:00:00 16.2 24 Sur 43 Sur 0 -- -- 74
2019-04-25 09:00:00 15 24 Sur 41 Sur 0 -- -- 77
2019-04-25 08:00:00 14.4 26 Sur 43 Sudoeste 0 -- -- 78
2019-04-25 07:00:00 13.9 18 Sur 32 Sur 0 -- -- 80
2019-04-25 06:00:00 13.6 15 Sur 26 Sur 0 -- -- 82
2019-04-25 05:00:00 13.4 13 Sur 21 Sur 0 -- -- 82
2019-04-25 04:00:00 12.9 9 Sur 20 Sudeste 0 -- -- 84
2019-04-25 03:00:00 12.2 9 Sudeste 18 Sur 0 -- -- 84
2019-04-25 02:00:00 12.1 12 Sur 21 Sudoeste 0 -- -- 83
2019-04-25 01:00:00 11.5 8 Sur 20 Sur 0 -- -- 80
2019-04-25 00:00:00 12.2 11 Sur 22 Sur 0 -- -- 72
2019-04-24 23:00:00 12.4 3 Sur 32 Sudoeste 0 -- -- 72
2019-04-24 22:00:00 13.3 16 Sudoeste 34 Sur 0 -- -- 68
2019-04-24 21:00:00 14.1 13 Sudoeste 33 Sudoeste 0 -- -- 63
2019-04-24 20:00:00 15.8 21 Sudoeste 40 Sudoeste 0 -- -- 56
2019-04-24 19:00:00 17.4 23 Sur 41 Sur 0 -- -- 52
2019-04-24 18:00:00 17.5 23 Sudoeste 47 Sudoeste 0 -- -- 52
2019-04-24 17:00:00 17.7 22 Sur 45 Sudoeste 0 -- -- 53
2019-04-24 16:00:00 19.6 24 Sudoeste 49 Oeste 0 -- -- 48
2019-04-24 15:00:00 19.4 30 Sudoeste 53 Sudoeste 0 -- -- 41
2019-04-24 14:00:00 19.1 26 Sudoeste 46 Sudoeste 0 -- -- 43
2019-04-24 13:00:00 18.5 25 Sudoeste 51 Sudoeste 0 -- -- 43
2019-04-24 12:00:00 17.7 31 Sudoeste 53 Sudoeste 0 -- -- 44
2019-04-24 11:00:00 15.2 12 Sur 26 Sudoeste 0 -- -- 61
2019-04-24 10:00:00 15.6 12 Sudoeste 26 Sudoeste 0 -- -- 61
2019-04-24 09:00:00 14.4 12 Sudoeste 25 Sudoeste 0 -- -- 70
2019-04-24 08:00:00 11.9 0 Calma 11 Sudeste 0 -- -- 93
2019-04-24 07:00:00 11.5 0 Calma 10 Sudeste 0 -- -- 93
2019-04-24 06:00:00 11.5 0 Calma 9 Este 0 -- -- 92
2019-04-24 05:00:00 11.6 7 Sudeste 12 Sudeste 0 -- -- 93
2019-04-24 04:00:00 10.8 0 Calma 6 Sudeste 0 -- -- 94
2019-04-24 03:00:00 11.7 0 Calma 13 Sudeste 0 -- -- 93
2019-04-24 02:00:00 12.6 5 Sudeste 14 Sudeste 0 -- -- 93
2019-04-24 01:00:00 13 8 Sur 18 Sur 0 -- -- 92
2019-04-24 00:00:00 12.7 4 Sur 15 Sudeste 0 -- -- 89
2019-04-23 23:00:00 13.2 9 Sudeste 16 Sudeste 0 -- -- 88
2019-04-23 22:00:00 13.7 9 Sudeste 17 Sudeste 0 -- -- 88
2019-04-23 21:00:00 14.6 8 Sudeste 18 Sur 0 -- -- 83
2019-04-23 20:00:00 16.7 8 Sur 23 Sur 0 -- -- 75
2019-04-23 19:00:00 16.7 14 Sudeste 26 Sudeste 0 -- -- 75
2019-04-23 18:00:00 18.6 13 Sur 21 Sur 0 -- -- 73
2019-04-23 17:00:00 17.1 14 Sur 24 Sur 0 -- -- 82
2019-04-23 16:00:00 18 10 Sur 19 Sur 0 -- -- 77
2019-04-23 15:00:00 15.9 11 Sur 17 Sur 0 -- -- 87
2019-04-23 14:00:00 15.8 3 Sur 8 Sur 0 -- -- 86
2019-04-23 13:00:00 14.9 0 Calma 8 Sur 0.8 -- -- 91
2019-04-23 12:00:00 14 2 Sudeste 17 Este 0.4 -- -- 92
2019-04-23 11:00:00 14.4 11 Este 18 Este 0.8 -- -- 93
2019-04-23 10:00:00 13.2 7 Nordeste 15 Este 8.2 -- -- 95
2019-04-23 09:00:00 12.9 8 Nordeste 14 Nordeste 10 -- -- 95
2019-04-23 08:00:00 12.6 6 Nordeste 13 Norte 4.4 -- -- 94
2019-04-23 07:00:00 12.7 5 Norte 17 Este 4.2 -- -- 93
2019-04-23 06:00:00 12.7 7 Norte 16 Norte 6.4 -- -- 93
2019-04-23 05:00:00 12.9 9 Nordeste 22 Nordeste 2.2 -- -- 93
2019-04-23 04:00:00 12.6 5 Noroeste 15 Nordeste 5 -- -- 92
2019-04-23 03:00:00 12.6 4 Noroeste 16 Nordeste 5.2 -- -- 93
2019-04-23 02:00:00 12.9 10 Nordeste 18 Nordeste 1 -- -- 92
2019-04-23 01:00:00 12.9 9 Norte 13 Norte 0.6 -- -- 91
2019-04-23 00:00:00 13.5 9 Nordeste 27 Este 0.4 -- -- 86
2019-04-22 23:00:00 13.6 11 Nordeste 27 Nordeste 0.4 -- -- 84
2019-04-22 22:00:00 12.9 15 Nordeste 25 Nordeste 0.2 -- -- 88
2019-04-22 21:00:00 13.6 6 Norte 24 Nordeste 0.6 -- -- 83
2019-04-22 20:00:00 16 8 Este 29 Este 0 -- -- 61
2019-04-22 19:00:00 16.3 8 Este 24 Sudeste 0 -- -- 58
2019-04-22 18:00:00 16.4 8 Este 25 Sudeste 0 -- -- 56
2019-04-22 17:00:00 16.6 10 Sudeste 26 Este 0 -- -- 54
2019-04-22 16:00:00 16.9 12 Este 30 Sudeste 0 -- -- 54
2019-04-22 15:00:00 17.3 15 Este 39 Este 0 -- -- 51
2019-04-22 14:00:00 17 15 Este 35 Este 0 -- -- 51
2019-04-22 13:00:00 16.9 15 Este 34 Sudeste 0 -- -- 50
2019-04-22 12:00:00 15.6 12 Nordeste 21 Nordeste 0 -- -- 61
2019-04-22 11:00:00 14.8 7 Nordeste 27 Nordeste 0 -- -- 71
2019-04-22 10:00:00 15.8 13 Nordeste 34 Este 0 -- -- 61
2019-04-22 09:00:00 16.5 14 Nordeste 35 Este 0 -- -- 55
2019-04-22 08:00:00 15.9 10 Este 52 Sudeste 0 -- -- 54
2019-04-22 07:00:00 16.2 17 Este 37 Este 0 -- -- 48
2019-04-22 06:00:00 14.8 12 Nordeste 25 Nordeste 0 -- -- 60
2019-04-22 05:00:00 14.7 10 Nordeste 24 Este 0 -- -- 61
2019-04-22 04:00:00 15.5 8 Nordeste 23 Nordeste 0 -- -- 56
2019-04-22 03:00:00 15.5 13 Nordeste 27 Nordeste 0 -- -- 56
2019-04-22 02:00:00 16 14 Nordeste 35 Este 0 -- -- 52
2019-04-22 01:00:00 16 14 Nordeste 26 Nordeste 0 -- -- 51
2019-04-22 00:00:00 14.6 7 Nordeste 22 Norte 0 -- -- 60
2019-04-21 23:00:00 14.9 14 Nordeste 24 Este 0 -- -- 61
2019-04-21 22:00:00 15.1 14 Nordeste 26 Nordeste 0 -- -- 62
2019-04-21 21:00:00 14.7 13 Nordeste 31 Nordeste 0 -- -- 68
2019-04-21 20:00:00 15.2 15 Nordeste 29 Nordeste 0 -- -- 67
2019-04-21 19:00:00 16 14 Nordeste 27 Nordeste 0 -- -- 63
2019-04-21 18:00:00 16.4 14 Nordeste 34 Nordeste 0 -- -- 61
2019-04-21 17:00:00 16.6 14 Nordeste 35 Nordeste 0 -- -- 61
2019-04-21 16:00:00 16.2 18 Nordeste 30 Nordeste 0 -- -- 62
2019-04-21 15:00:00 16.1 16 Nordeste 32 Nordeste 0 -- -- 62
2019-04-21 14:00:00 15.8 15 Nordeste 31 Nordeste 0 -- -- 60
2019-04-21 13:00:00 15.3 11 Nordeste 27 Nordeste 0 -- -- 56
2019-04-21 12:00:00 14.8 16 Nordeste 40 Nordeste 0 -- -- 58
2019-04-21 11:00:00 15.4 15 Este 43 Este 0 -- -- 56
2019-04-21 10:00:00 15.8 13 Nordeste 28 Nordeste 0 -- -- 57
2019-04-21 09:00:00 14.8 12 Nordeste 24 Nordeste 0 -- -- 64
2019-04-21 08:00:00 14.4 14 Nordeste 38 Nordeste 0 -- -- 63
2019-04-21 07:00:00 14.7 24 Nordeste 46 Nordeste 0 -- -- 63
2019-04-21 06:00:00 14.9 22 Nordeste 41 Nordeste 0 -- -- 59
2019-04-21 05:00:00 14.9 17 Nordeste 37 Nordeste 0 -- -- 58
2019-04-21 04:00:00 15 11 Nordeste 27 Nordeste 0 -- -- 57
2019-04-21 03:00:00 14.6 17 Nordeste 28 Nordeste 0 -- -- 61
2019-04-21 02:00:00 13.5 3 Sudeste 30 Nordeste 0 -- -- 68
2019-04-21 01:00:00 12.4 17 Nordeste 26 Nordeste 0 -- -- 77
2019-04-21 00:00:00 11.3 10 Nordeste 19 Nordeste 1 -- -- 89
2019-04-20 23:00:00 11.8 6 Nordeste 19 Noroeste 1.4 -- -- 85
2019-04-20 22:00:00 13.9 8 Sudoeste 13 Sudoeste 0 -- -- 70
2019-04-20 21:00:00 14.9 3 Sudeste 8 Nordeste 0 -- -- 55
2019-04-20 20:00:00 16.1 5 Este 18 Este 0 -- -- 48
2019-04-20 19:00:00 16.6 5 Nordeste 17 Nordeste 0 -- -- 50
2019-04-20 18:00:00 16.9 7 Este 15 Norte 0 -- -- 48
2019-04-20 17:00:00 16.7 10 Nordeste 28 Este 0 -- -- 58
2019-04-20 16:00:00 17.9 13 Nordeste 25 Nordeste 0 -- -- 49
2019-04-20 15:00:00 18.2 15 Nordeste 30 Nordeste 0 -- -- 48
2019-04-20 14:00:00 19.3 13 Este 29 Este 0 -- -- 45
2019-04-20 13:00:00 19.9 13 Este 27 Este 0 -- -- 40
2019-04-20 12:00:00 20 14 Este 28 Nordeste 0 -- -- 42
2019-04-20 11:00:00 18.8 14 Nordeste 28 Nordeste 0 -- -- 48
2019-04-20 10:00:00 16.7 15 Nordeste 25 Este 0 -- -- 55
2019-04-20 09:00:00 16.7 16 Nordeste 28 Nordeste 0 -- -- 51
2019-04-20 08:00:00 15 12 Nordeste 21 Nordeste 0 -- -- 55
2019-04-20 07:00:00 14 15 Nordeste 23 Nordeste 0 -- -- 59
2019-04-20 06:00:00 13.4 13 Nordeste 21 Nordeste 0 -- -- 59
2019-04-20 05:00:00 13.1 11 Nordeste 19 Norte 0 -- -- 60
2019-04-20 04:00:00 13 14 Nordeste 21 Nordeste 0 -- -- 59
2019-04-20 03:00:00 12.1 12 Nordeste 18 Nordeste 0 -- -- 60
2019-04-20 02:00:00 11.4 7 Nordeste 12 Norte 0 -- -- 62
2019-04-20 01:00:00 11.2 3 Nordeste 13 Nordeste 0 -- -- 65
2019-04-20 00:00:00 11.7 7 Norte 15 Nordeste 0 -- -- 61
2019-04-19 23:00:00 11.9 6 Norte 14 Nordeste 0 -- -- 60
2019-04-19 22:00:00 13 9 Nordeste 17 Nordeste 0 -- -- 59
2019-04-19 21:00:00 14.3 6 Nordeste 9 Nordeste 0 -- -- 59
2019-04-19 20:00:00 17.2 3 Sudeste 15 Este 0 -- -- 50
2019-04-19 19:00:00 18.1 6 Sudeste 24 Este 0 -- -- 46
2019-04-19 18:00:00 18.8 14 Este 34 Este 0 -- -- 43
2019-04-19 17:00:00 18.8 17 Este 37 Sudeste 0 -- -- 44
2019-04-19 16:00:00 21 17 Sudeste 36 Sudeste 0 -- -- 36
2019-04-19 15:00:00 20.1 8 Este 37 Este 0 -- -- 38
2019-04-19 14:00:00 19.4 14 Sudeste 33 Este 0 -- -- 44
2019-04-19 13:00:00 19.7 17 Sudeste 37 Este 0 -- -- 43
2019-04-19 12:00:00 19.2 18 Sudeste 30 Sur 0 -- -- 44
2019-04-19 11:00:00 19.2 12 Este 22 Sudeste 0 -- -- 46
2019-04-19 10:00:00 17.7 8 Sudeste 19 Este 0 -- -- 52
2019-04-19 09:00:00 15.3 11 Nordeste 21 Nordeste 0 -- -- 67
2019-04-19 08:00:00 14 10 Nordeste 15 Nordeste 0 -- -- 73
2019-04-19 07:00:00 13.3 10 Norte 21 Norte 0 -- -- 80
2019-04-19 06:00:00 13.2 15 Nordeste 25 Nordeste 0 -- -- 81
2019-04-19 05:00:00 12.5 12 Nordeste 24 Nordeste 0 -- -- 74
2019-04-19 04:00:00 11.5 14 Nordeste 19 Nordeste 0 -- -- 72
2019-04-19 03:00:00 10.9 11 Nordeste 18 Nordeste 0 -- -- 74
2019-04-19 02:00:00 11.3 9 Nordeste 17 Nordeste 0 -- -- 75
2019-04-19 01:00:00 11.4 6 Norte 15 Nordeste 0 -- -- 74
2019-04-19 00:00:00 12 9 Nordeste 16 Nordeste 0 -- -- 71
2019-04-18 23:00:00 12.2 6 Nordeste 12 Nordeste 0 -- -- 71
2019-04-18 22:00:00 13.1 4 Norte 12 Este 0 -- -- 68
2019-04-18 21:00:00 14.1 8 Nordeste 13 Nordeste 0 -- -- 65
2019-04-18 20:00:00 15.6 7 Nordeste 13 Este 0 -- -- 60
2019-04-18 19:00:00 15.6 5 Este 17 Este 0 -- -- 62
2019-04-18 18:00:00 16.4 8 Sudeste 17 Este 0 -- -- 57
2019-04-18 17:00:00 17 4 Este 17 Este 0 -- -- 55
2019-04-18 16:00:00 17.1 11 Sudeste 21 Este 0 -- -- 53
2019-04-18 15:00:00 18.2 14 Sudeste 36 Sudeste 0 -- -- 49
2019-04-18 14:00:00 19.3 14 Sudeste 28 Sudeste 0 -- -- 43
2019-04-18 13:00:00 17.3 9 Sudoeste 23 Oeste 0 -- -- 62
2019-04-18 12:00:00 16.3 8 Sudoeste 18 Sudoeste 0 -- -- 68
2019-04-18 11:00:00 15.4 5 Sudoeste 14 Sur 0 -- -- 72
2019-04-18 10:00:00 14.3 3 Sudoeste 10 Este 0 -- -- 79
2019-04-18 09:00:00 13 3 Este 8 Nordeste 0 -- -- 90
2019-04-18 08:00:00 11.4 6 Nordeste 8 Nordeste 0 -- -- 96
2019-04-18 07:00:00 10.8 0 Calma 5 Nordeste 0 -- -- 96
2019-04-18 06:00:00 10.6 0 Calma 3 Norte 0 -- -- 95
2019-04-18 05:00:00 11.1 0 Calma 5 Nordeste 0 -- -- 94
2019-04-18 04:00:00 11.7 2 Nordeste 5 Sudeste 0 -- -- 93
2019-04-18 03:00:00 12.5 2 Sudeste 8 Sudeste 0 -- -- 93
2019-04-18 02:00:00 12.8 6 Sur 12 Sudeste 0 -- -- 93
2019-04-18 01:00:00 13 3 Sur 12 Sur 0 -- -- 92
2019-04-18 00:00:00 13.1 4 Sur 16 Sur 0 -- -- 92
2019-04-17 23:00:00 13.2 9 Sur 21 Sudeste 0 -- -- 90
2019-04-17 22:00:00 13.4 9 Sur 22 Sur 0 -- -- 88
2019-04-17 21:00:00 13.4 13 Sur 24 Sur 0 -- -- 85
2019-04-17 20:00:00 13.8 11 Sur 24 Sudeste 0 -- -- 82
2019-04-17 19:00:00 14.7 13 Sur 24 Sur 0 -- -- 80
2019-04-17 18:00:00 14.8 15 Sudeste 31 Sur 0 -- -- 79
2019-04-17 17:00:00 15 19 Sur 36 Sur 0 -- -- 76
2019-04-17 16:00:00 16.7 20 Sur 35 Sur 0 -- -- 71
2019-04-17 15:00:00 17 23 Sur 36 Sur 0 -- -- 69
2019-04-17 14:00:00 16.7 23 Sur 36 Sur 0 -- -- 71
2019-04-17 13:00:00 16.4 21 Sur 35 Sur 0 -- -- 73
2019-04-17 12:00:00 13.9 8 Sur 24 Sur 0 -- -- 85
2019-04-17 11:00:00 11.9 0 Calma 6 Norte 0 -- -- 92
2019-04-17 10:00:00 10.9 5 Sur 12 Sudoeste 0 -- -- 94
2019-04-17 09:00:00 11 5 Sudoeste 8 Sudoeste 0 -- -- 95
2019-04-17 08:00:00 10.5 0 Calma 8 Nordeste 0 -- -- 96
2019-04-17 07:00:00 9.5 6 Nordeste 13 Nordeste 0 -- -- 95
2019-04-17 06:00:00 8.4 5 Nordeste 9 Nordeste 0 -- -- 95
2019-04-17 05:00:00 7.8 3 Nordeste 5 Nordeste 0 -- -- 94
2019-04-17 04:00:00 8.5 2 Nordeste 10 Nordeste 0 -- -- 93
2019-04-17 03:00:00 9.5 5 Nordeste 10 Nordeste 0 -- -- 93
2019-04-17 02:00:00 10.9 0 Calma 4 Nordeste 0 -- -- 91
2019-04-17 01:00:00 11.8 3 Nordeste 4 Nordeste 0 -- -- 90
2019-04-17 00:00:00 12 0 Calma 6 Sudoeste 0 -- -- 90
2019-04-16 23:00:00 12 0 Calma 4 Oeste 0 -- -- 90
2019-04-16 22:00:00 12.2 0 Calma 13 Sudoeste 0 -- -- 86
2019-04-16 21:00:00 13.4 0 Calma 12 Nordeste 0 -- -- 77
2019-04-16 20:00:00 13.7 8 Nordeste 19 Nordeste 0 -- -- 76
2019-04-16 19:00:00 14.6 12 Nordeste 25 Nordeste 0 -- -- 72
2019-04-16 18:00:00 15.4 14 Nordeste 23 Nordeste 0 -- -- 69
2019-04-16 17:00:00 16.2 16 Nordeste 28 Nordeste 0 -- -- 67
2019-04-16 16:00:00 15.4 15 Este 27 Este 0 -- -- 71
2019-04-16 15:00:00 15.4 15 Nordeste 24 Nordeste 0 -- -- 73
2019-04-16 14:00:00 15.5 12 Nordeste 23 Este 0 -- -- 72
2019-04-16 13:00:00 15.8 11 Nordeste 23 Noroeste 0 -- -- 67
2019-04-16 12:00:00 16.5 7 Nordeste 20 Nordeste 0 -- -- 65
2019-04-16 11:00:00 14.4 9 Sur 17 Sur 0 -- -- 80
2019-04-16 10:00:00 11.9 4 Sudoeste 9 Sur 0 -- -- 91
2019-04-16 09:00:00 11.2 3 Nordeste 6 Nordeste 0 -- -- 94
2019-04-16 08:00:00 10.6 0 Calma 8 Nordeste 0 -- -- 94
2019-04-16 07:00:00 10.3 0 Calma 5 Nordeste 0 -- -- 94
2019-04-16 06:00:00 10.3 3 Noroeste 7 Nordeste 0 -- -- 94
2019-04-16 05:00:00 9.9 4 Norte 20 Norte 1 -- -- 94
2019-04-16 04:00:00 10.1 5 Oeste 17 Nordeste 2.6 -- -- 92
2019-04-16 03:00:00 10.3 6 Nordeste 15 Oeste 1.8 -- -- 89
2019-04-16 02:00:00 11.4 3 Noroeste 10 Nordeste 0 -- -- 76
2019-04-16 01:00:00 10.8 5 Nordeste 9 Norte 0 -- -- 79
2019-04-16 00:00:00 11.5 0 Calma 12 Sur 0 -- -- 76
2019-04-15 23:00:00 11.7 5 Sudeste 12 Sudeste 0 -- -- 74
2019-04-15 22:00:00 11.7 4 Sudeste 13 Sudeste 0 -- -- 71
2019-04-15 21:00:00 11.9 8 Sur 18 Sudeste 0 -- -- 70
2019-04-15 20:00:00 12.3 10 Sudeste 18 Sudeste 0 -- -- 66
2019-04-15 19:00:00 12.7 12 Sur 23 Sudeste 0 -- -- 59
2019-04-15 18:00:00 13.3 13 Sur 24 Sur 0 -- -- 51
2019-04-15 17:00:00 14.3 12 Sur 26 Sur 0 -- -- 41
2019-04-15 16:00:00 15.7 17 Sur 29 Sudoeste 0 -- -- 40
2019-04-15 15:00:00 16.5 15 Sur 29 Sur 0 -- -- 50
2019-04-15 14:00:00 15.6 15 Sur 24 Sur 0 -- -- 51
2019-04-15 13:00:00 16 8 Sudoeste 21 Sudoeste 0 -- -- 49
2019-04-15 12:00:00 14.9 9 Sur 22 Sudoeste 0 -- -- 50
2019-04-15 11:00:00 14.2 11 Sudoeste 19 Sur 0 -- -- 53
2019-04-15 10:00:00 13.2 3 Sudoeste 8 Nordeste 0 -- -- 54
2019-04-15 09:00:00 11.3 4 Sur 12 Sudoeste 0 -- -- 62
2019-04-15 08:00:00 9.5 7 Nordeste 12 Nordeste 0 -- -- 66
2019-04-15 07:00:00 8.8 10 Norte 15 Nordeste 0 -- -- 66
2019-04-15 06:00:00 9.5 10 Nordeste 17 Nordeste 0 -- -- 62
2019-04-15 05:00:00 10.2 9 Nordeste 24 Nordeste 0 -- -- 60
2019-04-15 04:00:00 10.5 12 Norte 21 Nordeste 0 -- -- 59
2019-04-15 03:00:00 11.6 6 Nordeste 12 Nordeste 0 -- -- 55
2019-04-15 02:00:00 13 7 Nordeste 15 Nordeste 0 -- -- 50
2019-04-15 01:00:00 14.1 4 Nordeste 23 Noroeste 0 -- -- 47
2019-04-15 00:00:00 14.7 14 Noroeste 27 Norte 0 -- -- 47
2019-04-14 23:00:00 15 17 Nordeste 34 Nordeste 0 -- -- 47
2019-04-14 22:00:00 15.2 18 Norte 35 Norte 0 -- -- 46
2019-04-14 21:00:00 13.8 6 Sudoeste 43 Nordeste 0 -- -- 57
2019-04-14 20:00:00 16.8 15 Nordeste 26 Este 0 -- -- 36
2019-04-14 19:00:00 15.7 5 Oeste 14 Sudoeste 0 -- -- 56
2019-04-14 18:00:00 16 6 Sur 16 Sudoeste 0 -- -- 53
2019-04-14 17:00:00 16.6 8 Sudoeste 17 Sudoeste 0 -- -- 50
2019-04-14 16:00:00 16.5 10 Sudoeste 22 Sudoeste 0 -- -- 51
2019-04-14 15:00:00 16.1 13 Sudoeste 27 Sudoeste 0 -- -- 53
2019-04-14 14:00:00 16.3 13 Sur 23 Sur 0 -- -- 52
2019-04-14 13:00:00 15 12 Sur 25 Sur 0 -- -- 52
2019-04-14 12:00:00 15.7 10 Sudeste 22 Sur 0 -- -- 51
2019-04-14 11:00:00 14.8 15 Sur 23 Sur 0 -- -- 55
2019-04-14 10:00:00 14.6 4 Sudoeste 12 Sur 0 -- -- 58
2019-04-14 09:00:00 11.7 3 Oeste 7 Noroeste 0 -- -- 72
2019-04-14 08:00:00 8.1 3 Nordeste 9 Norte 0 -- -- 78
2019-04-14 07:00:00 6.9 2 Este 9 Nordeste 0 -- -- 77
2019-04-14 06:00:00 8.4 6 Nordeste 14 Nordeste 0 -- -- 71
2019-04-14 05:00:00 9.2 10 Nordeste 16 Nordeste 0 -- -- 68
2019-04-14 04:00:00 8.9 5 Nordeste 14 Nordeste 0 -- -- 73
2019-04-14 03:00:00 8.6 10 Nordeste 13 Nordeste 0 -- -- 79
2019-04-14 02:00:00 8.9 2 Norte 12 Este 0 -- -- 65
2019-04-14 01:00:00 10.3 6 Este 12 Este 0 -- -- 59
2019-04-14 00:00:00 10.6 4 Este 15 Norte 0 -- -- 55
2019-04-13 23:00:00 11.6 4 Sudoeste 12 Nordeste 0 -- -- 58
2019-04-13 22:00:00 12.8 2 Noroeste 11 Norte 0 -- -- 53
2019-04-13 21:00:00 15.2 4 Este 13 Sur 0 -- -- 46
2019-04-13 20:00:00 18.1 7 Sur 17 Sudoeste 0 -- -- 31
2019-04-13 19:00:00 21.3 5 Nordeste 28 Sur 0 -- -- 18
2019-04-13 18:00:00 18.9 19 Sur 27 Sur 0 -- -- 42
2019-04-13 17:00:00 21.6 9 Norte 41 Nordeste 0 -- -- 16
2019-04-13 16:00:00 22.3 20 Nordeste 43 Nordeste 0 -- -- 16
2019-04-13 15:00:00 21.4 21 Norte 44 Norte 0 -- -- 16
2019-04-13 14:00:00 21.3 19 Norte 42 Noroeste 0 -- -- 17
2019-04-13 13:00:00 20.9 20 Noroeste 33 Noroeste 0 -- -- 16
2019-04-13 12:00:00 19.8 16 Norte 32 Noroeste 0 -- -- 22
2019-04-13 11:00:00 18.1 19 Norte 30 Norte 0 -- -- 25
2019-04-13 10:00:00 15.1 8 Sudoeste 14 Sur 0 -- -- 38
2019-04-13 09:00:00 12.2 3 Sur 10 Sudoeste 0 -- -- 47
2019-04-13 08:00:00 11.8 10 Nordeste 22 Nordeste 0 -- -- 45
2019-04-13 07:00:00 12.1 15 Nordeste 42 Nordeste 0 -- -- 42
2019-04-13 06:00:00 12.4 19 Norte 39 Norte 0 -- -- 43
2019-04-13 05:00:00 13.1 20 Norte 46 Nordeste 0 -- -- 42
2019-04-13 04:00:00 13.9 21 Norte 48 Norte 0 -- -- 37
2019-04-13 03:00:00 14.3 21 Norte 54 Noroeste 0 -- -- 34
2019-04-13 02:00:00 14.5 23 Norte 45 Norte 0 -- -- 33
2019-04-13 01:00:00 14.7 21 Norte 44 Norte 0 -- -- 34
2019-04-13 00:00:00 14.7 19 Norte 44 Norte 0 -- -- 33
2019-04-12 23:00:00 15.2 25 Norte 43 Noroeste 0 -- -- 33
2019-04-12 22:00:00 15.1 19 Norte 39 Noroeste 0 -- -- 37
2019-04-12 21:00:00 15.7 11 Sudeste 28 Sur 0 -- -- 38
2019-04-12 20:00:00 16.9 8 Este 52 Norte 0 -- -- 35
2019-04-12 19:00:00 17.9 21 Norte 63 Norte 0 -- -- 31
2019-04-12 18:00:00 19 26 Norte 55 Norte 0 -- -- 30
2019-04-12 17:00:00 19.6 26 Norte 57 Norte 0 -- -- 28
2019-04-12 16:00:00 19.8 25 Norte 54 Norte 0 -- -- 26
2019-04-12 15:00:00 19.6 22 Norte 54 Norte 0 -- -- 29
2019-04-12 14:00:00 19.2 27 Norte 61 Nordeste 0 -- -- 29
2019-04-12 13:00:00 18.3 27 Norte 48 Norte 0 -- -- 33
2019-04-12 12:00:00 17 20 Norte 43 Noroeste 0 -- -- 41
2019-04-12 11:00:00 15.3 22 Noroeste 42 Norte 0 -- -- 45
2019-04-12 10:00:00 14.6 6 Oeste 29 Noroeste 0 -- -- 48
2019-04-12 09:00:00 14.5 16 Noroeste 33 Norte 0 -- -- 47
2019-04-12 08:00:00 13.1 12 Noroeste 42 Noroeste 0 -- -- 50
2019-04-12 07:00:00 12.6 15 Norte 35 Norte 0 -- -- 54
2019-04-12 06:00:00 12.6 15 Noroeste 38 Norte 0 -- -- 55
2019-04-12 05:00:00 12.8 16 Norte 39 Noroeste 0 -- -- 53
2019-04-12 04:00:00 12.8 11 Norte 39 Norte 0 -- -- 57
2019-04-12 03:00:00 13.2 20 Norte 48 Noroeste 0 -- -- 58
2019-04-12 02:00:00 13.7 26 Norte 57 Noroeste 0 -- -- 57
2019-04-12 01:00:00 14 30 Norte 59 Norte 0 -- -- 56
2019-04-12 00:00:00 14.3 28 Norte 54 Norte 0 -- -- 53
2019-04-11 23:00:00 14.3 35 Norte 59 Norte 0 -- -- 54
2019-04-11 22:00:00 14 27 Norte 58 Noroeste 0 -- -- 56
2019-04-11 21:00:00 14.3 25 Noroeste 50 Norte 0 -- -- 54
2019-04-11 20:00:00 14.3 23 Noroeste 45 Noroeste 0 -- -- 52
2019-04-11 19:00:00 14.5 13 Noroeste 36 Noroeste 0 -- -- 51
2019-04-11 18:00:00 15.1 14 Sudoeste 42 Norte 0 -- -- 52
2019-04-11 17:00:00 14.9 18 Norte 46 Sudoeste 0 -- -- 50
2019-04-11 16:00:00 16.4 9 Norte 34 Noroeste 0 -- -- 45
2019-04-11 15:00:00 15.3 22 Noroeste 53 Norte 0 -- -- 46
2019-04-11 14:00:00 15.5 27 Norte 49 Norte 0 -- -- 43
2019-04-11 13:00:00 16.2 22 Norte 41 Noroeste 0 -- -- 42
2019-04-11 12:00:00 14.4 15 Noroeste 43 Noroeste 0 -- -- 42
2019-04-11 11:00:00 14.5 12 Noroeste 34 Norte 0 -- -- 42
2019-04-11 10:00:00 14.3 19 Noroeste 58 Noroeste 0 -- -- 40
2019-04-11 09:00:00 13.6 29 Noroeste 65 Norte 0 -- -- 40
2019-04-11 08:00:00 13 36 Noroeste 66 Noroeste 0 -- -- 42
2019-04-11 07:00:00 12.7 32 Noroeste 62 Noroeste 0 -- -- 47
2019-04-11 06:00:00 12.7 30 Norte 58 Noroeste 0 -- -- 51
2019-04-11 05:00:00 12.8 24 Norte 59 Noroeste 0 -- -- 60
2019-04-11 04:00:00 13 23 Norte 59 Noroeste 0 -- -- 60
2019-04-11 03:00:00 13.2 29 Noroeste 58 Noroeste 0 -- -- 57
2019-04-11 02:00:00 13.4 36 Noroeste 63 Noroeste 0 -- -- 54
2019-04-11 01:00:00 13.2 35 Noroeste 56 Norte 0 -- -- 53
2019-04-11 00:00:00 13.6 36 Norte 64 Norte 0 -- -- 51
2019-04-10 23:00:00 13.9 26 Noroeste 51 Noroeste 0 -- -- 50
2019-04-10 22:00:00 14.6 30 Norte 54 Noroeste 0 -- -- 48
2019-04-10 21:00:00 14.2 27 Noroeste 51 Norte 0 -- -- 50
2019-04-10 20:00:00 14.5 29 Noroeste 51 Noroeste 0 -- -- 48
2019-04-10 19:00:00 14.6 23 Noroeste 56 Noroeste 0 -- -- 50
2019-04-10 18:00:00 18.8 25 Noroeste 44 Nordeste 0 -- -- 39
2019-04-10 17:00:00 18.7 22 Norte 42 Norte 0 -- -- 38
2019-04-10 16:00:00 18.9 26 Norte 46 Norte 0 -- -- 39
2019-04-10 15:00:00 17.7 21 Norte 49 Noroeste 0 -- -- 42
2019-04-10 14:00:00 18.2 23 Norte 50 Norte 0 -- -- 43
2019-04-10 13:00:00 16 25 Norte 50 Norte 0 -- -- 47
2019-04-10 12:00:00 16 23 Norte 46 Noroeste 0 -- -- 47
2019-04-10 11:00:00 16.7 18 Norte 40 Noroeste 0 -- -- 48
2019-04-10 10:00:00 15.4 21 Noroeste 49 Noroeste 0 -- -- 51
2019-04-10 09:00:00 14.3 23 Norte 55 Norte 0 -- -- 51
2019-04-10 08:00:00 13.5 30 Norte 55 Norte 0 -- -- 51
2019-04-10 07:00:00 13.4 22 Norte 45 Norte 0 -- -- 50
2019-04-10 06:00:00 13.5 22 Norte 48 Norte 0 -- -- 51
2019-04-10 05:00:00 13.4 16 Norte 32 Norte 0 -- -- 52
2019-04-10 04:00:00 13.3 8 Norte 27 Noroeste 0 -- -- 54
2019-04-10 03:00:00 10.6 6 Sur 14 Sur 0 -- -- 72
2019-04-10 02:00:00 8.1 3 Norte 12 Nordeste 0 -- -- 87
2019-04-10 01:00:00 7.6 3 Nordeste 8 Nordeste 0 -- -- 91
2019-04-10 00:00:00 7.8 6 Nordeste 11 Nordeste 0 -- -- 92
2019-04-09 23:00:00 8.9 5 Nordeste 12 Nordeste 0 -- -- 89
2019-04-09 22:00:00 10.4 4 Norte 8 Norte 0 -- -- 91
2019-04-09 21:00:00 11.2 3 Nordeste 5 Norte 0.2 -- -- 91
2019-04-09 20:00:00 12.6 0 Calma 5 Sur 0 -- -- 83
2019-04-09 19:00:00 13 4 Sur 12 Sur 0 -- -- 76
2019-04-09 18:00:00 13.1 5 Sur 9 Sudeste 0 -- -- 78
2019-04-09 17:00:00 13.2 3 Sur 14 Sur 0 -- -- 78
2019-04-09 16:00:00 12.9 9 Sur 18 Sudeste 0.8 -- -- 84
2019-04-09 15:00:00 15.3 12 Sudeste 22 Sudeste 0 -- -- 63
2019-04-09 14:00:00 16.2 6 Sudoeste 18 Sudoeste 0 -- -- 61
2019-04-09 13:00:00 15.5 7 Sur 14 Sur 0 -- -- 65
2019-04-09 12:00:00 13.7 8 Sur 14 Sur 0 -- -- 70
2019-04-09 11:00:00 13.5 4 Noroeste 7 Sudoeste 0.2 -- -- 74
2019-04-09 10:00:00 11.1 2 Sudeste 6 Sur 0 -- -- 88
2019-04-09 09:00:00 10.5 6 Sudeste 17 Nordeste 0 -- -- 85
2019-04-09 08:00:00 10.2 13 Nordeste 34 Oeste 3.8 -- -- 87
2019-04-09 07:00:00 11.1 6 Oeste 18 Nordeste 0 -- -- 81
2019-04-09 06:00:00 11.1 8 Norte 17 Nordeste 0 -- -- 82
2019-04-09 05:00:00 10.7 8 Nordeste 10 Nordeste 0 -- -- 87
2019-04-09 04:00:00 10.7 3 Nordeste 14 Nordeste 0.2 -- -- 87
2019-04-09 03:00:00 10.6 5 Norte 10 Nordeste 0 -- -- 90
2019-04-09 02:00:00 10.7 4 Nordeste 10 Oeste 0 -- -- 90
2019-04-09 01:00:00 11 6 Oeste 18 Nordeste 0 -- -- 88
2019-04-09 00:00:00 11.2 3 Este 14 Sudoeste 0 -- -- 89
2019-04-08 23:00:00 11.1 3 Nordeste 12 Nordeste 0 -- -- 79
2019-04-08 22:00:00 10.5 5 Nordeste 9 Nordeste 0 -- -- 82
2019-04-08 21:00:00 11.9 0 Calma 4 Norte 0 -- -- 80
2019-04-08 20:00:00 13.8 4 Sudoeste 18 Sudoeste 0 -- -- 72
2019-04-08 19:00:00 16.9 10 Sudoeste 18 Sur 0 -- -- 52
2019-04-08 18:00:00 17.5 11 Sur 23 Sudeste 0 -- -- 53
2019-04-08 17:00:00 18 12 Sur 22 Sur 0 -- -- 53
2019-04-08 16:00:00 18 7 Sudeste 23 Sur 0 -- -- 52
2019-04-08 15:00:00 18 14 Sur 26 Sudeste 0 -- -- 53
2019-04-08 14:00:00 17.2 7 Nordeste 21 Sudeste 0 -- -- 53
2019-04-08 13:00:00 16.5 13 Sur 26 Sur 0 -- -- 55
2019-04-08 12:00:00 15 5 Este 16 Sur 0 -- -- 57
2019-04-08 11:00:00 15 8 Sur 14 Sudoeste 0 -- -- 56
2019-04-08 10:00:00 12.1 4 Sudoeste 6 Sur 0 -- -- 66
2019-04-08 09:00:00 7.9 0 Calma 10 Nordeste 0 -- -- 82
2019-04-08 08:00:00 6.8 8 Nordeste 14 Nordeste 0 -- -- 84
2019-04-08 07:00:00 6.4 2 Nordeste 15 Nordeste 0 -- -- 85
2019-04-08 06:00:00 6.4 12 Nordeste 16 Nordeste 0 -- -- 84
2019-04-08 05:00:00 6.4 10 Nordeste 16 Nordeste 0 -- -- 83
2019-04-08 04:00:00 5.6 0 Calma 12 Nordeste 0 -- -- 86
2019-04-08 03:00:00 6.1 4 Norte 14 Nordeste 0 -- -- 84
2019-04-08 02:00:00 6.7 8 Nordeste 19 Nordeste 0 -- -- 83
2019-04-08 01:00:00 6.3 7 Nordeste 10 Nordeste 0 -- -- 86
2019-04-08 00:00:00 7 5 Nordeste 10 Nordeste 0 -- -- 84
2019-04-07 23:00:00 8 2 Norte 15 Nordeste 0 -- -- 81
2019-04-07 22:00:00 9.2 6 Nordeste 16 Nordeste 0 -- -- 77
2019-04-07 21:00:00 11.1 4 Nordeste 14 Sudeste 0 -- -- 71
2019-04-07 20:00:00 13.7 10 Sur 23 Norte 0 -- -- 61
2019-04-07 19:00:00 16.4 13 Norte 37 Nordeste 0 -- -- 42
2019-04-07 18:00:00 16.4 17 Norte 35 Norte 0 -- -- 42
2019-04-07 17:00:00 16.4 18 Norte 40 Norte 0 -- -- 43
2019-04-07 16:00:00 16.3 19 Nordeste 38 Nordeste 0 -- -- 49
2019-04-07 15:00:00 15.4 20 Nordeste 35 Nordeste 0 -- -- 54
2019-04-07 14:00:00 14.5 27 Nordeste 51 Norte 0 -- -- 59
2019-04-07 13:00:00 15 21 Norte 44 Norte 0 -- -- 50
2019-04-07 12:00:00 14.1 9 Norte 27 Nordeste 0 -- -- 56
2019-04-07 11:00:00 13.8 9 Sur 34 Norte 0 -- -- 55
2019-04-07 10:00:00 12.9 9 Nordeste 27 Noroeste 0 -- -- 58
2019-04-07 09:00:00 9.2 3 Nordeste 14 Nordeste 0 -- -- 76
2019-04-07 08:00:00 7.2 10 Nordeste 15 Nordeste 0 -- -- 84
2019-04-07 07:00:00 6 2 Sur 15 Nordeste 0 -- -- 84
2019-04-07 06:00:00 6.7 9 Nordeste 22 Nordeste 0 -- -- 83
2019-04-07 05:00:00 5.5 12 Nordeste 19 Norte 0 -- -- 86
2019-04-07 04:00:00 5.2 5 Nordeste 15 Nordeste 0 -- -- 89
2019-04-07 03:00:00 5.6 8 Nordeste 17 Nordeste 0 -- -- 89
2019-04-07 02:00:00 5.8 9 Nordeste 16 Nordeste 0 -- -- 90
2019-04-07 01:00:00 6.3 9 Nordeste 16 Nordeste 0 -- -- 88
2019-04-07 00:00:00 6.7 4 Nordeste 14 Nordeste 0 -- -- 87
2019-04-06 23:00:00 7.4 10 Nordeste 21 Nordeste 0 -- -- 85
2019-04-06 22:00:00 8.2 13 Nordeste 21 Nordeste 0 -- -- 82
2019-04-06 21:00:00 9.3 9 Nordeste 18 Nordeste 0 -- -- 76
2019-04-06 20:00:00 11.2 9 Nordeste 24 Nordeste 0 -- -- 69
2019-04-06 19:00:00 12.5 15 Nordeste 26 Nordeste 0 -- -- 65
2019-04-06 18:00:00 13.9 15 Nordeste 32 Nordeste 0 -- -- 61
2019-04-06 17:00:00 13.4 17 Nordeste 32 Nordeste 0 -- -- 68
2019-04-06 16:00:00 13.9 19 Nordeste 33 Nordeste 0 -- -- 65
2019-04-06 15:00:00 14.1 15 Nordeste 26 Nordeste 0 -- -- 65
2019-04-06 14:00:00 15.9 14 Sur 27 Sudoeste 0 -- -- 55
2019-04-06 13:00:00 14.3 10 Sur 21 Sur 0 -- -- 55
2019-04-06 12:00:00 13.9 12 Sur 21 Sur 0 -- -- 61
2019-04-06 11:00:00 12.7 2 Norte 13 Sur 0 -- -- 70
2019-04-06 10:00:00 11.3 2 Noroeste 13 Este 0 -- -- 79
2019-04-06 09:00:00 8.7 5 Este 9 Este 0 -- -- 96
2019-04-06 08:00:00 7.5 5 Nordeste 12 Sudoeste 0 -- -- 95
2019-04-06 07:00:00 8 8 Sur 15 Sur 0 -- -- 95
2019-04-06 06:00:00 8.9 4 Sudoeste 13 Sudeste 0.2 -- -- 93
2019-04-06 05:00:00 10.1 7 Sudeste 13 Sur 0 -- -- 94
2019-04-06 04:00:00 10.4 0 Calma 27 Sudoeste 2.6 -- -- 94
2019-04-06 03:00:00 10.6 10 Oeste 26 Sudoeste 2 -- -- 94
2019-04-06 02:00:00 10.3 5 Noroeste 22 Sudeste 2.2 -- -- 93
2019-04-06 01:00:00 11.3 6 Sur 17 Sur 1.6 -- -- 93
2019-04-06 00:00:00 11.4 4 Sudoeste 11 Sur 0.4 -- -- 90
2019-04-05 23:00:00 11.5 2 Norte 4 Norte 0 -- -- 80
2019-04-05 22:00:00 11.8 3 Sur 19 Sur 0 -- -- 72
2019-04-05 21:00:00 12.5 13 Sur 26 Sur 0 -- -- 71
2019-04-05 20:00:00 13.5 14 Sudoeste 36 Sudoeste 0 -- -- 73
2019-04-05 19:00:00 14.1 20 Sur 38 Sur 0 -- -- 71
2019-04-05 18:00:00 14.2 20 Sur 35 Sudoeste 0 -- -- 73
2019-04-05 17:00:00 14.1 16 Sudoeste 33 Sudoeste 0 -- -- 69
2019-04-05 16:00:00 13.6 9 Sudoeste 33 Sudoeste 0.2 -- -- 74
2019-04-05 15:00:00 16.5 22 Sur 38 Sudoeste 0 -- -- 56
2019-04-05 14:00:00 17 18 Sudoeste 47 Oeste 0 -- -- 55
2019-04-05 13:00:00 16.7 25 Sudoeste 43 Sudoeste 0 -- -- 49
2019-04-05 12:00:00 13.9 4 Nordeste 12 Sudoeste 0 -- -- 58
2019-04-05 11:00:00 11.6 4 Sudoeste 10 Sur 0 -- -- 61
2019-04-05 10:00:00 9 5 Sudoeste 10 Este 0 -- -- 68
2019-04-05 09:00:00 7.1 3 Este 13 Nordeste 0 -- -- 80
2019-04-05 08:00:00 2.9 2 Nordeste 8 Este 0 -- -- 94
2019-04-05 07:00:00 2.7 4 Nordeste 9 Nordeste 0 -- -- 92
2019-04-05 06:00:00 3.7 4 Norte 9 Nordeste 0 -- -- 90
2019-04-05 05:00:00 4.1 4 Nordeste 12 Nordeste 0 -- -- 88
2019-04-05 04:00:00 4 8 Nordeste 14 Nordeste 0 -- -- 88
2019-04-05 03:00:00 3.8 6 Nordeste 15 Nordeste 0 -- -- 88
2019-04-05 02:00:00 4.2 11 Nordeste 16 Nordeste 0 -- -- 87
2019-04-05 01:00:00 4.5 6 Nordeste 12 Nordeste 0 -- -- 88
2019-04-05 00:00:00 5.5 4 Nordeste 8 Nordeste 0 -- -- 88
2019-04-04 23:00:00 7.7 4 Nordeste 6 Sur 0 -- -- 81
2019-04-04 22:00:00 8.2 0 Calma 7 Nordeste 0 -- -- 81
2019-04-04 21:00:00 9 4 Nordeste 11 Sudeste 0 -- -- 72
2019-04-04 20:00:00 10 5 Sur 20 Sur 0 -- -- 66
2019-04-04 19:00:00 10.9 14 Sur 26 Sur 0 -- -- 61
2019-04-04 18:00:00 12.4 8 Sur 21 Sur 0 -- -- 57
2019-04-04 17:00:00 12.2 7 Sur 20 Sudeste 0 -- -- 54
2019-04-04 16:00:00 12.3 9 Sudeste 16 Este 0 -- -- 53
2019-04-04 15:00:00 12.3 6 Este 16 Este 0 -- -- 49
2019-04-04 14:00:00 12.3 6 Oeste 15 Sudoeste 0 -- -- 48
2019-04-04 13:00:00 10.9 4 Sur 12 Oeste 0 -- -- 58
2019-04-04 12:00:00 9.9 0 Calma 6 Sudoeste 0 -- -- 55
2019-04-04 11:00:00 9.2 3 Oeste 11 Nordeste 0 -- -- 62
2019-04-04 10:00:00 9.2 7 Nordeste 15 Nordeste 0 -- -- 58
2019-04-04 09:00:00 7.7 8 Nordeste 19 Norte 0 -- -- 67
2019-04-04 08:00:00 5.4 6 Este 13 Nordeste 0 -- -- 81
2019-04-04 07:00:00 5.2 4 Nordeste 6 Nordeste 0 -- -- 87
2019-04-04 06:00:00 5.8 2 Sudeste 9 Este 0 -- -- 83
2019-04-04 05:00:00 6 3 Este 12 Sur 0 -- -- 81
2019-04-04 04:00:00 7 10 Sudeste 23 Nordeste 0 -- -- 66
2019-04-04 03:00:00 7.2 7 Nordeste 19 Norte 0 -- -- 68
2019-04-04 02:00:00 7.3 6 Sudeste 37 Nordeste 0 -- -- 67
2019-04-04 01:00:00 7.8 9 Norte 33 Norte 0 -- -- 61
2019-04-04 00:00:00 7.9 13 Noroeste 31 Norte 0 -- -- 63
2019-04-03 23:00:00 7.3 10 Nordeste 37 Norte 1.2 -- -- 68
2019-04-03 22:00:00 6.6 19 Norte 39 Norte 0.6 -- -- 78
2019-04-03 21:00:00 7 3 Nordeste 18 Nordeste 1.6 -- -- 83
2019-04-03 20:00:00 7.5 4 Nordeste 26 Norte 2 -- -- 82
2019-04-03 19:00:00 8.3 4 Norte 18 Nordeste 2 -- -- 85
2019-04-03 18:00:00 9.8 12 Nordeste 19 Nordeste 0 -- -- 72
2019-04-03 17:00:00 10.1 11 Nordeste 20 Este 0 -- -- 74
2019-04-03 16:00:00 10.6 10 Este 27 Este 0 -- -- 76
2019-04-03 15:00:00 11.3 12 Nordeste 20 Nordeste 0 -- -- 73
2019-04-03 14:00:00 11.1 9 Nordeste 17 Nordeste 0.4 -- -- 88
2019-04-03 13:00:00 10.6 8 Nordeste 20 Nordeste 0.4 -- -- 87
2019-04-03 12:00:00 12.2 6 Este 16 Norte 0 -- -- 83
2019-04-03 11:00:00 12.2 7 Sudeste 12 Este 0 -- -- 88
2019-04-03 10:00:00 10.9 3 Este 7 Este 0 -- -- 95
2019-04-03 09:00:00 9.7 0 Calma 4 Norte 0.2 -- -- 95
2019-04-03 08:00:00 9.2 0 Calma 10 Nordeste 0 -- -- 95
2019-04-03 07:00:00 8.9 7 Nordeste 11 Nordeste 0.2 -- -- 94
2019-04-03 06:00:00 8.7 7 Nordeste 10 Nordeste 0 -- -- 93
2019-04-03 05:00:00 8.7 3 Norte 12 Norte 0 -- -- 94
2019-04-03 04:00:00 9.3 5 Norte 9 Norte 0 -- -- 94
2019-04-03 03:00:00 10 3 Nordeste 7 Nordeste 0 -- -- 94
2019-04-03 02:00:00 10.1 6 Nordeste 8 Nordeste 0 -- -- 94
2019-04-03 01:00:00 10.1 3 Norte 8 Nordeste 0 -- -- 93
2019-04-03 00:00:00 10.4 3 Nordeste 11 Nordeste 0 -- -- 93
2019-04-02 23:00:00 10.4 7 Nordeste 12 Nordeste 0 -- -- 94
2019-04-02 22:00:00 10.4 0 Calma 8 Este 0 -- -- 93
2019-04-02 21:00:00 10.7 4 Sudeste 8 Sudeste 0 -- -- 93
2019-04-02 20:00:00 10.9 0 Calma 12 Nordeste 0.4 -- -- 91
2019-04-02 19:00:00 11.1 3 Sudeste 14 Nordeste 3.8 -- -- 87
2019-04-02 18:00:00 12.7 5 Norte 18 Nordeste 0.4 -- -- 74
2019-04-02 17:00:00 13.3 3 Sudeste 18 Noroeste 0.4 -- -- 86
2019-04-02 16:00:00 14.6 6 Nordeste 15 Nordeste 0 -- -- 73
2019-04-02 15:00:00 16.9 9 Sur 19 Sur 0 -- -- 58
2019-04-02 14:00:00 17.4 12 Sur 39 Sur 0 -- -- 59
2019-04-02 13:00:00 18 9 Sudoeste 26 Oeste 0 -- -- 54
2019-04-02 12:00:00 16.3 8 Sur 12 Oeste 0 -- -- 57
2019-04-02 11:00:00 14.8 5 Sudoeste 11 Sudoeste 0 -- -- 62
2019-04-02 10:00:00 13.1 5 Sur 9 Sur 0 -- -- 68
2019-04-02 09:00:00 10.3 4 Nordeste 14 Norte 0 -- -- 75
2019-04-02 08:00:00 8 8 Nordeste 12 Nordeste 0 -- -- 81
2019-04-02 07:00:00 7.1 4 Nordeste 7 Norte 0 -- -- 84
2019-04-02 06:00:00 7.1 6 Nordeste 11 Nordeste 0 -- -- 80
2019-04-02 05:00:00 7 0 Calma 11 Nordeste 0 -- -- 80
2019-04-02 04:00:00 6.7 7 Nordeste 13 Nordeste 0 -- -- 82
2019-04-02 03:00:00 7.2 7 Nordeste 10 Nordeste 0 -- -- 82
2019-04-02 02:00:00 7.6 5 Nordeste 9 Nordeste 0 -- -- 85
2019-04-02 01:00:00 8.3 4 Nordeste 10 Nordeste 0 -- -- 85
2019-04-02 00:00:00 8.7 3 Nordeste 8 Nordeste 0 -- -- 83
2019-04-01 23:00:00 9.3 0 Calma 9 Nordeste 0 -- -- 82
2019-04-01 22:00:00 9.9 3 Nordeste 6 Nordeste 0 -- -- 83
2019-04-01 21:00:00 11.1 0 Calma 5 Sudeste 0 -- -- 79
2019-04-01 20:00:00 13.1 5 Sudeste 15 Sur 0 -- -- 74
2019-04-01 19:00:00 15.2 12 Sur 21 Sur 0 -- -- 62
2019-04-01 18:00:00 16.6 13 Sur 26 Sur 0 -- -- 56
2019-04-01 17:00:00 18.1 16 Sur 27 Sur 0 -- -- 46
2019-04-01 16:00:00 19.5 14 Sur 30 Sur 0 -- -- 44
2019-04-01 15:00:00 19.6 10 Sur 21 Sur 0 -- -- 43
2019-04-01 14:00:00 19.5 9 Sur 17 Sur 0 -- -- 38
2019-04-01 13:00:00 17.3 5 Sur 17 Sur 0 -- -- 50
2019-04-01 12:00:00 16.4 8 Sudoeste 15 Sudoeste 0 -- -- 53
2019-04-01 11:00:00 14.5 5 Sudoeste 11 Sudoeste 0 -- -- 67
2019-04-01 10:00:00 13.6 3 Sur 9 Sur 0 -- -- 67
2019-04-01 09:00:00 11.8 3 Nordeste 9 Nordeste 0 -- -- 68
2019-04-01 08:00:00 8.4 7 Nordeste 10 Nordeste 0 -- -- 80
2019-04-01 07:00:00 7.8 6 Nordeste 9 Nordeste 0 -- -- 81
2019-04-01 06:00:00 7.9 0 Calma 9 Nordeste 0 -- -- 79
2019-04-01 05:00:00 8.2 3 Norte 13 Nordeste 0 -- -- 74
2019-04-01 04:00:00 7.8 9 Nordeste 13 Nordeste 0 -- -- 79
2019-04-01 03:00:00 7.4 4 Nordeste 8 Nordeste 0 -- -- 87
2019-04-01 02:00:00 8.2 6 Nordeste 9 Nordeste 0 -- -- 88
2019-04-01 01:00:00 8.4 4 Nordeste 6 Norte 0 -- -- 88
2019-04-01 00:00:00 8.7 4 Nordeste 9 Nordeste 0 -- -- 88
2019-03-31 23:00:00 9.1 4 Nordeste 8 Nordeste 0 -- -- 87
2019-03-31 22:00:00 9.5 3 Nordeste 5 Norte 0 -- -- 84
2019-03-31 21:00:00 10.8 2 Norte 5 Norte 0 -- -- 78
2019-03-31 20:00:00 12.9 4 Sudoeste 15 Sudoeste 0 -- -- 71
2019-03-31 19:00:00 15.1 9 Sudoeste 15 Sur 0 -- -- 56
2019-03-31 18:00:00 15.4 11 Sur 18 Sudoeste 0 -- -- 55
2019-03-31 17:00:00 15.6 12 Sur 19 Sudoeste 0 -- -- 59
2019-03-31 16:00:00 15.4 11 Sur 26 Sur 0 -- -- 61
2019-03-31 15:00:00 16.4 10 Sudoeste 26 Sur 0 -- -- 56
2019-03-31 14:00:00 16.3 9 Sudoeste 23 Sudoeste 0 -- -- 55
2019-03-31 13:00:00 15.6 10 Sur 17 Sudoeste 0 -- -- 60
2019-03-31 12:00:00 14.4 8 Sur 17 Sur 0 -- -- 67
2019-03-31 11:00:00 13.2 0 Calma 10 Oeste 0 -- -- 72
2019-03-31 10:00:00 10.3 0 Calma 4 Sur 0 -- -- 84
2019-03-31 09:00:00 9.2 0 Calma 6 Nordeste 0 -- -- 86
2019-03-31 08:00:00 7.9 5 Nordeste 10 Norte 0 -- -- 85
2019-03-31 07:00:00 5.5 3 Nordeste 12 Nordeste 0 -- -- 90
2019-03-31 06:00:00 5.5 7 Nordeste 12 Nordeste 0 -- -- 87
2019-03-31 05:00:00 5.9 5 Norte 12 Norte 0 -- -- 89
2019-03-31 03:00:00 6.6 6 Nordeste 10 Nordeste 0 -- -- 91
2019-03-31 01:00:00 7.1 3 Nordeste 6 Nordeste 0 -- -- 90
2019-03-31 00:00:00 8.2 3 Norte 6 Norte 0 -- -- 84
2019-03-30 23:00:00 10.1 0 Calma 3 Sur 0 -- -- 80
2019-03-30 22:00:00 9.5 0 Calma 6 Nordeste 0 -- -- 82
2019-03-30 21:00:00 8.4 3 Norte 7 Nordeste 0 -- -- 84
2019-03-30 20:00:00 9.5 4 Norte 11 Sur 0 -- -- 78
2019-03-30 19:00:00 11.9 8 Sur 22 Sur 0 -- -- 71
2019-03-30 18:00:00 13.5 13 Sur 28 Sur 0 -- -- 65
2019-03-30 17:00:00 14.7 17 Sur 33 Sur 0 -- -- 57
2019-03-30 16:00:00 15.1 23 Sur 39 Sur 0 -- -- 59
2019-03-30 15:00:00 16 22 Sur 37 Sur 0 -- -- 55
2019-03-30 14:00:00 16.6 19 Sudeste 34 Sur 0 -- -- 51
2019-03-30 13:00:00 16.2 17 Sur 31 Sur 0 -- -- 55
2019-03-30 12:00:00 15.3 14 Sur 28 Sur 0 -- -- 58
2019-03-30 11:00:00 14.4 13 Sur 26 Sur 0 -- -- 58
2019-03-30 10:00:00 13 8 Sudoeste 15 Sudoeste 0 -- -- 61
2019-03-30 09:00:00 11.9 4 Sur 8 Sur 0 -- -- 64
2019-03-30 08:00:00 8.3 0 Calma 4 Norte 0 -- -- 81
2019-03-30 07:00:00 4.9 0 Calma 2 Nordeste 0 -- -- 88
2019-03-30 06:00:00 5.2 0 Calma 3 Nordeste 0 -- -- 88
2019-03-30 05:00:00 5.1 0 Calma 6 Nordeste 0 -- -- 86
2019-03-30 04:00:00 4.6 0 Calma 7 Nordeste 0 -- -- 83
2019-03-30 03:00:00 5.1 4 Nordeste 13 Nordeste 0 -- -- 76
2019-03-30 02:00:00 5 3 Nordeste 13 Nordeste 0 -- -- 71
2019-03-30 01:00:00 6.1 9 Nordeste 17 Nordeste 0 -- -- 60
2019-03-30 00:00:00 5.7 8 Nordeste 14 Nordeste 0 -- -- 55
2019-03-29 23:00:00 5.7 4 Nordeste 9 Este 0 -- -- 56
2019-03-29 22:00:00 6.5 2 Nordeste 10 Nordeste 0 -- -- 54
2019-03-29 21:00:00 7.4 4 Nordeste 12 Nordeste 0 -- -- 55
2019-03-29 20:00:00 9.5 2 Nordeste 14 Nordeste 0 -- -- 56
2019-03-29 19:00:00 13.3 3 Sur 17 Sudeste 0 -- -- 54
2019-03-29 18:00:00 14.9 12 Sur 24 Sudoeste 0 -- -- 42
2019-03-29 17:00:00 15.7 18 Sur 32 Sudeste 0 -- -- 33
2019-03-29 16:00:00 16 21 Sur 34 Sur 0 -- -- 38
2019-03-29 15:00:00 16.6 21 Sur 35 Sur 0 -- -- 34
2019-03-29 14:00:00 17 20 Sur 35 Sur 0 -- -- 35
2019-03-29 13:00:00 17.3 19 Sur 33 Sudeste 0 -- -- 34
2019-03-29 12:00:00 17 19 Sur 31 Sur 0 -- -- 36
2019-03-29 11:00:00 16.2 12 Sur 24 Sudeste 0 -- -- 38
2019-03-29 10:00:00 15 6 Sur 10 Sur 0 -- -- 53
2019-03-29 09:00:00 13.1 2 Sur 8 Nordeste 0 -- -- 62
2019-03-29 08:00:00 9.4 6 Nordeste 12 Nordeste 0 -- -- 69
2019-03-29 07:00:00 5.7 9 Nordeste 14 Nordeste 0 -- -- 74
2019-03-29 06:00:00 5.3 4 Nordeste 9 Nordeste 0 -- -- 75
2019-03-29 05:00:00 4.6 5 Este 9 Nordeste 0 -- -- 78
2019-03-29 04:00:00 5.9 3 Nordeste 12 Nordeste 0 -- -- 76
2019-03-29 03:00:00 8.5 10 Este 18 Nordeste 0 -- -- 67
2019-03-29 02:00:00 7.8 8 Nordeste 20 Nordeste 0 -- -- 65
2019-03-29 01:00:00 8 13 Nordeste 19 Nordeste 0 -- -- 65
2019-03-29 00:00:00 7.6 6 Nordeste 14 Nordeste 0 -- -- 66
2019-03-28 23:00:00 7.3 7 Nordeste 12 Nordeste 0 -- -- 67
2019-03-28 22:00:00 7.8 3 Nordeste 15 Nordeste 0 -- -- 66
2019-03-28 21:00:00 8.5 7 Nordeste 17 Nordeste 0 -- -- 64
2019-03-28 20:00:00 10.1 3 Nordeste 8 Nordeste 0 -- -- 57
2019-03-28 19:00:00 13.7 0 Calma 17 Sudoeste 0 -- -- 47
2019-03-28 18:00:00 15.9 10 Sudoeste 19 Sudoeste 0 -- -- 42
2019-03-28 17:00:00 16.5 14 Sur 28 Sur 0 -- -- 36
2019-03-28 16:00:00 17.6 12 Sur 25 Sudoeste 0 -- -- 39
2019-03-28 15:00:00 17.2 17 Sur 32 Sur 0 -- -- 39
2019-03-28 14:00:00 17.8 15 Sudeste 26 Este 0 -- -- 38
2019-03-28 13:00:00 17.3 19 Sudeste 30 Sudeste 0 -- -- 39
2019-03-28 12:00:00 18.1 13 Este 29 Noroeste 0 -- -- 33
2019-03-28 11:00:00 17 8 Sudoeste 14 Oeste 0 -- -- 36
2019-03-28 10:00:00 15.2 10 Sudoeste 17 Sudoeste 0 -- -- 40
2019-03-28 09:00:00 13.4 4 Sudoeste 8 Sudoeste 0 -- -- 45
2019-03-28 08:00:00 10 6 Nordeste 12 Nordeste 0 -- -- 54
2019-03-28 07:00:00 5.8 5 Nordeste 12 Nordeste 0 -- -- 66
2019-03-28 06:00:00 5.5 4 Norte 9 Norte 0 -- -- 65
2019-03-28 05:00:00 6.6 3 Norte 10 Nordeste 0 -- -- 61
2019-03-28 04:00:00 8 2 Nordeste 16 Nordeste 0 -- -- 56
2019-03-28 03:00:00 9 11 Nordeste 17 Nordeste 0 -- -- 55
2019-03-28 02:00:00 9.5 10 Nordeste 14 Nordeste 0 -- -- 52
2019-03-28 01:00:00 10.7 6 Nordeste 12 Nordeste 0 -- -- 46
2019-03-28 00:00:00 12.1 8 Nordeste 21 Nordeste 0 -- -- 42
2019-03-27 23:00:00 13.3 8 Nordeste 17 Nordeste 0 -- -- 38
2019-03-27 22:00:00 14.3 12 Nordeste 36 Norte 0 -- -- 33
2019-03-27 21:00:00 15.4 18 Norte 40 Noroeste 0 -- -- 29
2019-03-27 20:00:00 15.6 17 Norte 42 Norte 0 -- -- 27
2019-03-27 19:00:00 16.3 20 Norte 38 Norte 0 -- -- 26
2019-03-27 18:00:00 18.2 12 Norte 39 Nordeste 0 -- -- 24
2019-03-27 17:00:00 19.2 17 Nordeste 37 Norte 0 -- -- 22
2019-03-27 16:00:00 19.6 22 Nordeste 47 Nordeste 0 -- -- 22
2019-03-27 15:00:00 19.9 25 Nordeste 46 Nordeste 0 -- -- 18
2019-03-27 14:00:00 20.1 21 Norte 41 Norte 0 -- -- 15
2019-03-27 13:00:00 19.3 19 Norte 39 Nordeste 0 -- -- 17
2019-03-27 12:00:00 18.5 21 Norte 38 Nordeste 0 -- -- 20
2019-03-27 11:00:00 16.9 18 Norte 42 Noroeste 0 -- -- 24
2019-03-27 10:00:00 16.3 23 Norte 45 Norte 0 -- -- 23
2019-03-27 09:00:00 15.2 12 Norte 32 Norte 0 -- -- 25
2019-03-27 08:00:00 12.1 4 Noroeste 29 Norte 0 -- -- 32
2019-03-27 07:00:00 11.7 18 Norte 40 Norte 0 -- -- 31
2019-03-27 06:00:00 9.7 6 Sudoeste 21 Nordeste 0 -- -- 33
2019-03-27 05:00:00 11.4 14 Norte 29 Norte 0 -- -- 28
2019-03-27 04:00:00 11.1 5 Nordeste 27 Este 0 -- -- 31
2019-03-27 03:00:00 11.6 18 Nordeste 32 Nordeste 0 -- -- 31
2019-03-27 02:00:00 12 14 Nordeste 25 Nordeste 0 -- -- 29
2019-03-27 01:00:00 12.6 11 Nordeste 33 Nordeste 0 -- -- 28
2019-03-27 00:00:00 13.5 9 Norte 43 Norte 0 -- -- 27